• Join FlightAware (Why Join?)
  • Login
  • US Flag 
02:26PM EDT


 

Airport Tracker/Info


-or-


 

Live Flight TrackerFlight Track Log ✈ N600TR ✈ 25-Aug-2013 ✈ KMEM - KATL

Flight Track Log - Related Links

Times and Time Zones

All times are in EDT time to prevent confusion due to time zone crossing. See the N600TR flight status page for this flight to view local times or setup timezone preferences in your user account.

Time Position Orientation Groundspeed Altitude Reporting Facility
EDT Latitude Longitude Course Direction KTS MPH feet Rate Location/Type
02:29PM 35.0333 -89.9667 101° East 169 194 1,100  Level KMEM
02:29PM 35.0000 -89.9667 180° South 174 200 2,000 1,620 Climbing KMEM
02:30PM 34.9833 -89.9000 107° East 227 261 3,700 1,800 Climbing KMEM
02:31PM 35.0000 -89.8167 76° East 270 311 5,700 2,280 Climbing KMEM
02:32PM 34.9729 -89.6813 101° East  Level FlightAware Approximate
02:32PM 34.9833 -89.7167 101° East 277 319 8,300  Level KMEM
02:33PM 34.9564 -89.5737 101° East  Level FlightAware Approximate
02:33PM 34.9667 -89.6167 101° East 288 331 10,900  Level KMEM
02:34PM 34.9399 -89.4662 101° East  Level FlightAware Approximate
02:34PM 34.9569 -89.5817 109° East 288 331 11,800  Level Memphis Center
02:35PM 34.9417 -89.4831 101° East 293 337 13,900 1,440 Climbing Memphis Center
02:36PM 34.9219 -89.3667 102° East 304 350 14,700 780 Climbing Memphis Center
02:37PM 34.9000 -89.2431 102° East 349 402 15,500 1,200 Climbing Memphis Center
02:38PM 34.8800 -89.1092 100° East 387 445 17,200 1,380 Climbing Memphis Center
02:39PM 34.8556 -88.9728 102° East 406 467 18,300 1,380 Climbing Memphis Center
02:40PM 34.8311 -88.8342 102° East 412 474 20,000 1,500 Climbing Memphis Center
02:41PM 34.8042 -88.6903 103° East 423 487 21,300 1,320 Climbing Memphis Center
02:42PM 34.7811 -88.5442 101° East 434 499 22,700 1,260 Climbing Memphis Center
02:43PM 34.7625 -88.4181 100° East 427 491 23,900 1,260 Climbing Memphis Center
02:44PM 34.7456 -88.2694 98° East 437 503 25,300 1,140 Climbing Memphis Center
02:45PM 34.7303 -88.1156 97° East 456 525 26,200 780 Climbing Memphis Center
02:46PM 34.7108 -87.9672 99° East 451 519 26,900 360 Climbing Memphis Center
02:47PM 34.6997 -87.8183 95° East 445 512 27,000 420 Climbing Memphis Center
02:48PM 34.6861 -87.6697 96° East 439 505 27,800 840 Climbing Memphis Center
02:49PM 34.6622 -87.5317 102° East 434 499 28,700 360 Climbing Memphis Center
02:51PM 34.6031 -87.2008 102° East 433 498 29,000 60 Climbing Atlanta Center
02:52PM 34.5753 -87.0611 104° East 433 498 29,000  Level Atlanta Center
02:53PM 34.5494 -86.9214 103° East 428 493 29,000 -60 Level Atlanta Center
02:54PM 34.5253 -86.7869 102° East 416 479 28,900 -480 Descending Atlanta Center
02:55PM 34.5011 -86.6550 102° East 416 479 28,100 -1,260 Descending Atlanta Center
02:56PM 34.4789 -86.5233 102° East 403 464 26,400 -1,500 Descending Atlanta Center
02:57PM 34.4417 -86.3964 110° East 398 458 25,200 -1,200 Descending Atlanta Center
02:58PM 34.4044 -86.2694 110° East 398 458 24,000 -600 Descending Atlanta Center
02:59PM 34.3711 -86.1478 108° East 392 451 24,000  Level Atlanta Center
03:00PM 34.3356 -86.0236 109° East 392 451 24,000  Level Atlanta Center
03:01PM 34.3000 -85.8944 108° East 392 451 24,000 -60 Level Atlanta Center
03:02PM 34.2808 -85.7861 102° East 378 435 23,900 -1,320 Descending Atlanta Center
03:03PM 34.2658 -85.6575 98° East 378 435 21,400 -2,520 Descending Atlanta Center
03:04PM 34.2486 -85.5214 99° East 378 435 18,900 -2,280 Descending Atlanta Center
03:05PM 34.2292 -85.4031 101° East 372 428 16,900 -2,160 Descending Atlanta Center
03:06PM 34.2075 -85.2872 103° East 357 411 14,600 -1,800 Descending Atlanta Center
03:07PM 34.1878 -85.1789 102° East 343 395 13,300 -840 Descending Atlanta Center
03:08PM 34.1508 -85.0881 116° Southeast 318 366 13,000 -180 Descending Atlanta Center
03:09PM 34.0867 -85.0219 140° Southeast 297 342 13,000 -900 Level Atlanta Center
03:10PM 34.0078 -84.9786 156° South 309 356 11,300 -1,680 Descending Atlanta Center
03:11PM 33.9286 -84.9425 159° South 304 350 9,700 -1,200 Descending Atlanta Center
03:12PM 33.8539 -84.9042 157° South 304 350 9,000 -600 Descending Atlanta Center
03:13PM 33.7767 -84.8886 170° South 289 333 8,500 -1,020 Descending Atlanta Center
03:14PM 33.6975 -84.8828 176° South 289 333 7,000 -1,260 Descending Atlanta Center
03:15PM 33.6333 -84.8333 147° Southeast 260 299 5,900 -600 Descending Atlanta TRACON
03:16PM 33.6333 -84.7500 90° East 215 247 5,800 -600 Descending Atlanta TRACON
03:17PM 33.6333 -84.7000 90° East 213 245 4,800 -1,140 Descending Atlanta TRACON
03:18PM 33.6333 -84.6167 90° East 207 238 3,700 -1,080 Descending Atlanta TRACON
03:19PM 33.6333 -84.5500 90° East 205 236 2,600 -960 Descending Atlanta TRACON
03:20PM 33.6333 -84.5000 90° East 144 166 1,800 -900 Descending Atlanta TRACON
03:22PM 33.6367 -84.4279 North  Level Estimated
03:29PM 33.6367 -84.4279 North  Level Estimated
03:30PM 33.6367 -84.4279 North  Level Estimated
03:31PM 33.6367 -84.4279 North  Level Estimated